Arlington, WA

8:54 AM PST on January 31, 2015 (GMT -0800)
Snohomish County | Change Station
CLOSE
Current Station
Airport
Location: Everett,
Elevation: 604 ft
Nearby Weather Stations

Elev 604 ft 47.91 °N, 122.28 °W | Updated 1 hour ago

Fog
Fog
37 °F
Feels Like 32 °F
N
6
Wind Variable Wind from North

Today
High -- | Low -- °F
--% Chance of Precip.
Yesterday
High -- | Low -- °F
Precip. -- in
7:37 AM 5:05 PM
Waxing Gibbous, 90% visible
Pressure 30.25 in
Visibility 0.2 miles
Clouds
Windchill 32 °F
Dew Point 36 °F
Humidity 96%
Rainfall 0.00 in
Snow Depth Not available.
UV Not available.
Pollen 4.60 out of 12
Air Quality Not available.
Flu Activity Not available.
METAR KPAE 311553Z 36005KT M1/4SM R16R/0500V0600FT FG VV001 03/02 A3024 RMK AO2 SLP243 T00280022 $

More Conditions Fewer Conditions

Pressure 30.25 in
Visibility 0.2 miles
Clouds
Windchill 32 °F
Dew Point 36 °F
Humidity 96%
Rainfall 0.00 in
Snow Depth Not available.
UV Not available.
Pollen 4.60 out of 12
Air Quality Not available.
Flu Activity Not available.
METAR KPAE 311553Z 36005KT M1/4SM R16R/0500V0600FT FG VV001 03/02 A3024 RMK AO2 SLP243 T00280022 $

More Conditions Fewer Conditions

10-Day Weather Forecast

Almanac

Astronomy

Jan. 31, 2015 Rise Set
Actual Time
Civil Twilight
Nautical Twilight
Astronomical Twilight
Moon
Length of Visible Light
Length of Day
Tomorrow will be .
, % of the Moon is Illuminated

Today's Extremes

State Highs State Lows

Community

WunderPhotos

Upload Photos

1,792,105 photos uploaded!

WunderBlogs® & News

Nearby

Air Quality

  Air Quality AQ Index Pollutant
Not available.

Snow Depth

Station Depth Elevation

Earthquake Activity

City Distance Mag. Time & Date
Minimum magnitude displayed is 2.5.

Coastal Water Temperatures

Place Temperature

Nearby Weather Stations